首页
METAR-TAF:

METAR-TAF

机场 :

Orange County Airport

蒙加马利, 紐約州, 美国

纬度: 41-30-33N, 经度: 074-15-54W, 海拔: 111米

当前天气观测

该预报发布于50分钟前的22:54 UTC
风速4节,风向北转东北
温度 1°C
湿度 100%
气压 1021 hPa
能見度: 8.0公里
阴天层高于600英尺
小雨, 轻雾

METAR: KMGJ 132254Z AUTO 02004KT 5SM -RA BR OVC006 01/01 A3016 RMK AO2 SLP218 P0002 T00110006

时间: 18:44 (23:44 UTC)


TAF: 丢失

超过4000个机场的气象观测和天气预报(METAR&TAF报告)。

可查询的气象台以黄色和红色小点在地图上表示。

将鼠标移到小点上方,可查看气象台名称。

然后点击查看天气观测和预报。

如需切换地图:点击带黑十字的绿色按钮放大地图;点击带横线的绿色按钮缩小地图;或者点击绿色箭头查看邻近地区的地图。


METAR-TAF: